createdAt,value
2018-02-01T00:05:30.403Z,89.88
2018-02-01T00:08:00.230Z,89.72
2018-02-01T00:18:26.320Z,89.20
2018-02-01T00:23:29.205Z,89.04
2018-02-01T00:26:06.483Z,88.73
2018-02-01T00:28:38.101Z,88.87
2018-02-01T00:31:09.077Z,88.68
2018-02-01T00:33:40.911Z,88.96
2018-02-01T00:36:21.747Z,89.22
2018-02-01T00:38:50.276Z,88.64
2018-02-01T00:41:18.778Z,89.41
2018-02-01T00:43:53.465Z,89.43
2018-02-01T00:46:25.986Z,89.16
2018-02-01T00:48:55.062Z,88.88
2018-02-01T00:51:25.406Z,89.09
2018-02-01T00:53:54.243Z,88.76
2018-02-01T00:56:23.622Z,88.67
2018-02-01T00:58:58.369Z,89.25
2018-02-01T01:01:28.734Z,88.99
2018-02-01T01:06:35.692Z,88.78
2018-02-01T01:09:07.896Z,88.67
2018-02-01T01:11:39.692Z,88.71
2018-02-01T01:14:13.794Z,88.54
2018-02-01T01:16:42.861Z,88.00
2018-02-01T01:19:16.023Z,88.82
2018-02-01T01:21:47.578Z,88.32
2018-02-01T01:26:51.852Z,88.67
2018-02-01T01:29:26.650Z,88.33
2018-02-01T01:32:00.036Z,88.64
2018-02-01T01:34:28.696Z,88.66
2018-02-01T01:36:59.852Z,88.98
2018-02-01T01:39:33.731Z,88.72
2018-02-01T01:42:02.692Z,88.57
2018-02-01T01:44:31.538Z,88.30
2018-02-01T01:47:04.336Z,88.22
2018-02-01T01:54:43.396Z,88.31
2018-02-01T01:57:12.960Z,88.39
2018-02-01T01:59:46.302Z,88.51
2018-02-01T02:02:22.098Z,88.16
2018-02-01T02:04:52.049Z,88.19
2018-02-01T02:07:23.515Z,87.83
2018-02-01T02:09:54.131Z,87.57
2018-02-01T02:12:28.858Z,87.91
2018-02-01T02:15:01.307Z,87.90
2018-02-01T02:17:34.644Z,88.32
2018-02-01T02:20:04.428Z,87.75
2018-02-01T02:22:33.144Z,87.64
2018-02-01T02:25:02.653Z,87.91
2018-02-01T02:30:08.306Z,88.02
2018-02-01T02:32:37.853Z,88.14
2018-02-01T02:35:12.899Z,87.44
2018-02-01T02:37:41.705Z,87.75
2018-02-01T02:40:19.990Z,87.35
2018-02-01T02:42:54.315Z,87.72
2018-02-01T02:48:01.794Z,87.45
2018-02-01T02:50:30.677Z,87.90
2018-02-01T02:53:02.648Z,87.70
2018-02-01T02:55:30.489Z,87.74
2018-02-01T02:57:58.090Z,87.94
2018-02-01T03:00:27.441Z,87.60
2018-02-01T03:05:46.928Z,87.41
2018-02-01T03:08:19.290Z,87.58
2018-02-01T03:10:54.245Z,87.59
2018-02-01T03:13:28.570Z,87.82
2018-02-01T03:15:56.095Z,87.60
2018-02-01T03:18:26.357Z,87.84
2018-02-01T03:20:55.502Z,87.64
2018-02-01T03:23:25.678Z,87.27
2018-02-01T03:25:57.578Z,87.29
2018-02-01T03:28:31.537Z,87.40
2018-02-01T03:31:07.579Z,87.56
2018-02-01T03:33:41.403Z,87.50
2018-02-01T03:36:11.022Z,87.24
2018-02-01T03:38:40.962Z,87.29
2018-02-01T03:41:15.711Z,87.22
2018-02-01T03:43:44.038Z,87.16
2018-02-01T03:46:11.858Z,86.75
2018-02-01T03:48:46.109Z,86.73
2018-02-01T03:51:16.407Z,86.92
2018-02-01T03:53:46.910Z,86.78
2018-02-01T03:56:18.424Z,86.63
2018-02-01T03:58:47.853Z,87.00
2018-02-01T04:01:20.409Z,87.03
2018-02-01T04:03:51.890Z,86.62
2018-02-01T04:06:21.589Z,86.64
2018-02-01T04:08:57.819Z,86.57
2018-02-01T04:11:33.788Z,86.79
2018-02-01T04:14:05.956Z,87.34
2018-02-01T04:16:35.525Z,86.33
2018-02-01T04:19:03.365Z,86.53
2018-02-01T04:21:31.790Z,86.17
2018-02-01T04:24:00.551Z,86.11
2018-02-01T04:26:34.002Z,85.98
2018-02-01T04:29:02.339Z,86.28
2018-02-01T04:34:05.028Z,86.16
2018-02-01T04:36:33.054Z,86.89
2018-02-01T04:39:00.012Z,86.04
2018-02-01T04:41:27.724Z,85.96
2018-02-01T04:43:54.725Z,86.17
2018-02-01T04:46:22.460Z,85.88
2018-02-01T04:48:49.476Z,85.98
2018-02-01T04:51:17.400Z,86.67
2018-02-01T04:53:44.378Z,86.32
2018-02-01T04:56:11.315Z,85.98
2018-02-01T04:58:38.341Z,86.14
2018-02-01T05:01:06.103Z,86.06
2018-02-01T05:03:33.139Z,86.75
2018-02-01T05:06:00.105Z,86.52
2018-02-01T05:08:27.126Z,86.85
2018-02-01T05:10:54.917Z,86.87
2018-02-01T05:13:24.910Z,86.87
2018-02-01T05:15:53.618Z,87.13
2018-02-01T05:18:22.282Z,86.82
2018-02-01T05:20:53.302Z,86.94
2018-02-01T05:25:56.396Z,86.64
2018-02-01T05:28:31.482Z,86.86
2018-02-01T05:33:40.598Z,86.97
2018-02-01T05:36:08.891Z,86.94
2018-02-01T05:38:41.578Z,86.83
2018-02-01T05:41:10.661Z,86.83
2018-02-01T05:43:41.554Z,87.28
2018-02-01T05:46:16.178Z,87.04
2018-02-01T05:48:52.131Z,86.63
2018-02-01T05:51:25.886Z,86.96
2018-02-01T05:53:58.838Z,86.83
2018-02-01T05:56:35.591Z,86.93
2018-02-01T05:59:27.281Z,87.20
2018-02-01T06:08:02.269Z,87.09
2018-02-01T06:16:45.933Z,87.07
2018-02-01T06:19:12.897Z,86.98
2018-02-01T06:21:40.672Z,87.32
2018-02-01T06:24:11.319Z,86.94
2018-02-01T06:26:38.288Z,87.05
2018-02-01T06:39:44.541Z,86.98
2018-02-01T06:47:47.608Z,87.35
2018-02-01T06:50:14.427Z,87.57
2018-02-01T06:52:41.258Z,87.10
2018-02-01T06:55:08.839Z,87.24
2018-02-01T06:57:36.063Z,87.15
2018-02-01T07:00:02.993Z,87.14
2018-02-01T07:02:29.808Z,87.10
2018-02-01T07:04:56.577Z,87.37
2018-02-01T07:07:23.512Z,87.29
2018-02-01T07:09:50.324Z,87.10
2018-02-01T07:12:18.084Z,87.03
2018-02-01T07:14:46.193Z,87.52
2018-02-01T07:17:13.844Z,87.68
2018-02-01T07:19:41.437Z,87.41
2018-02-01T07:22:08.201Z,87.03
2018-02-01T07:24:35.032Z,87.58
2018-02-01T07:27:01.796Z,87.05
2018-02-01T07:29:28.624Z,87.23
2018-02-01T07:31:55.415Z,87.62
2018-02-01T07:34:31.214Z,87.52
2018-02-01T07:36:58.057Z,87.13
2018-02-01T07:39:24.851Z,87.32
2018-02-01T07:41:51.706Z,87.58
2018-02-01T07:44:19.344Z,88.08
2018-02-01T07:46:46.211Z,87.77
2018-02-01T07:49:12.985Z,88.04
2018-02-01T07:51:39.762Z,87.41
2018-02-01T07:54:07.272Z,87.92
2018-02-01T07:56:34.029Z,88.00
2018-02-01T07:59:00.842Z,88.24
2018-02-01T08:43:39.846Z,87.63
2018-02-01T08:46:07.820Z,87.24
2018-02-01T08:48:36.780Z,87.26
2018-02-01T08:51:16.101Z,87.21
2018-02-01T08:53:45.061Z,87.11
2018-02-01T08:56:13.555Z,87.38
2018-02-01T08:58:40.937Z,87.06
2018-02-01T09:01:11.296Z,87.28
2018-02-01T09:03:38.470Z,87.15
2018-02-01T09:06:06.905Z,86.80
2018-02-01T09:08:35.114Z,86.78
2018-02-01T09:11:08.143Z,87.03
2018-02-01T09:13:35.967Z,86.77
2018-02-01T09:16:03.096Z,86.99
2018-02-01T09:18:30.308Z,86.86
2018-02-01T09:20:57.363Z,87.29
2018-02-01T09:23:25.540Z,87.17
2018-02-01T09:25:53.657Z,86.37
2018-02-01T09:28:22.464Z,86.11
2018-02-01T09:30:50.341Z,86.26
2018-02-01T09:33:17.237Z,86.52
2018-02-01T09:35:44.266Z,86.40
2018-02-01T09:38:11.094Z,86.29
2018-02-01T09:40:38.036Z,86.19
2018-02-01T09:43:05.012Z,85.63
2018-02-01T09:45:31.946Z,86.00
2018-02-01T09:47:59.020Z,85.89
2018-02-01T09:50:26.109Z,85.68
2018-02-01T09:52:53.023Z,85.51
2018-02-01T09:55:20.629Z,85.71
2018-02-01T09:57:47.676Z,85.36
2018-02-01T10:00:14.831Z,84.88
2018-02-01T10:02:42.474Z,86.11
2018-02-01T10:05:09.326Z,85.49
2018-02-01T10:07:36.164Z,84.46
2018-02-01T10:10:03.023Z,83.16
2018-02-01T10:12:29.957Z,84.35
2018-02-01T10:14:57.520Z,84.37
2018-02-01T10:17:24.377Z,83.72
2018-02-01T10:19:51.251Z,83.96
2018-02-01T10:22:18.110Z,83.73
2018-02-01T10:24:45.673Z,83.57
2018-02-01T10:27:13.467Z,83.31
2018-02-01T10:29:40.266Z,83.19
2018-02-01T10:32:07.086Z,83.10
2018-02-01T10:34:33.895Z,83.19
2018-02-01T10:37:00.794Z,83.51
2018-02-01T10:39:27.722Z,83.64
2018-02-01T10:41:54.539Z,83.32
2018-02-01T10:44:21.395Z,83.19
2018-02-01T10:46:48.245Z,82.88
2018-02-01T10:49:15.036Z,82.65
2018-02-01T10:51:42.557Z,82.84
2018-02-01T10:54:09.390Z,83.05
2018-02-01T10:56:36.203Z,82.90
2018-02-01T10:59:03.015Z,82.56
2018-02-01T11:01:29.965Z,82.59
2018-02-01T11:03:57.493Z,82.45
2018-02-01T11:06:24.410Z,81.82
2018-02-01T11:08:51.954Z,81.99
2018-02-01T11:11:18.754Z,82.21
2018-02-01T11:13:45.574Z,82.70
2018-02-01T11:16:12.396Z,82.26
2018-02-01T11:18:39.178Z,82.02
2018-02-01T11:21:05.962Z,82.25
2018-02-01T11:23:32.828Z,82.14
2018-02-01T11:25:59.707Z,81.88
2018-02-01T11:28:26.512Z,81.36
2018-02-01T11:30:53.344Z,81.38
2018-02-01T11:33:20.286Z,81.28
2018-02-01T11:35:47.838Z,81.22
2018-02-01T11:38:14.665Z,80.43
2018-02-01T11:40:41.487Z,80.27
2018-02-01T11:43:09.082Z,80.70
2018-02-01T11:45:35.862Z,80.86
2018-02-01T11:48:02.677Z,80.42
2018-02-01T11:50:30.222Z,78.83
2018-02-01T11:52:57.041Z,79.44
2018-02-01T11:55:23.841Z,79.29
2018-02-01T11:57:50.673Z,79.14
2018-02-01T12:00:17.501Z,79.18
2018-02-01T12:02:45.120Z,78.83
2018-02-01T12:05:11.973Z,78.24
2018-02-01T12:07:38.844Z,77.96
2018-02-01T12:10:05.687Z,77.10
2018-02-01T12:12:32.460Z,76.81
2018-02-01T12:15:00.023Z,77.10
2018-02-01T12:17:26.815Z,77.44
2018-02-01T12:19:53.769Z,76.39
2018-02-01T12:22:20.586Z,76.72
2018-02-01T12:24:48.118Z,76.39
2018-02-01T12:27:15.029Z,76.33
2018-02-01T12:29:41.875Z,76.19
2018-02-01T12:32:10.424Z,75.89
2018-02-01T12:34:37.274Z,75.57
2018-02-01T12:37:04.102Z,75.89
2018-02-01T12:39:30.917Z,76.50
2018-02-01T12:41:57.713Z,78.65
2018-02-01T12:44:24.576Z,80.14
2018-02-01T12:46:51.424Z,80.70
2018-02-01T12:49:18.478Z,81.95
2018-02-01T12:51:45.331Z,82.30
2018-02-01T13:14:46.530Z,83.61
2018-02-01T13:17:13.454Z,83.62
2018-02-01T13:19:41.009Z,83.72
2018-02-01T13:22:07.884Z,83.55
2018-02-01T13:24:34.868Z,83.50
2018-02-01T13:27:02.130Z,83.59
2018-02-01T13:29:28.960Z,83.02
2018-02-01T13:50:49.496Z,82.60
2018-02-01T13:53:18.406Z,82.44
2018-02-01T13:55:46.034Z,83.04
2018-02-01T13:58:13.373Z,82.81
2018-02-01T14:00:42.025Z,82.33
2018-02-01T14:43:01.543Z,84.71
2018-02-01T14:45:31.618Z,84.19
2018-02-01T14:48:00.740Z,84.69
2018-02-01T14:50:30.643Z,84.14
2018-02-01T14:52:58.253Z,84.64
2018-02-01T14:55:29.409Z,85.02
2018-02-01T14:57:58.042Z,85.07
2018-02-01T15:03:09.535Z,85.61
2018-02-01T15:05:38.165Z,85.40
2018-02-01T15:08:05.406Z,85.60
2018-02-01T15:10:33.444Z,85.95
2018-02-01T15:13:00.760Z,85.78
2018-02-01T15:15:27.876Z,86.44
2018-02-01T15:17:56.886Z,85.61
2018-02-01T15:20:25.220Z,86.66
2018-02-01T15:25:24.931Z,85.77
2018-02-01T15:28:09.692Z,85.83
2018-02-01T15:41:35.319Z,87.13
2018-02-01T15:46:44.783Z,87.33
2018-02-01T15:49:16.079Z,87.17
2018-02-01T15:51:55.355Z,87.49
2018-02-01T16:08:04.745Z,88.17
2018-02-01T16:10:33.812Z,88.17
2018-02-01T16:13:01.720Z,88.65
2018-02-01T16:15:28.747Z,88.23
2018-02-01T16:17:57.328Z,87.92
2018-02-01T16:20:25.172Z,88.18
2018-02-01T16:22:56.983Z,88.21
2018-02-01T16:25:23.967Z,88.46
2018-02-01T16:27:51.306Z,88.33
2018-02-01T16:30:30.109Z,88.62
2018-02-01T16:32:57.824Z,88.39
2018-02-01T16:35:25.089Z,88.52
2018-02-01T16:37:53.700Z,88.81
2018-02-01T16:40:20.815Z,88.56
2018-02-01T16:42:49.171Z,88.73
2018-02-01T16:50:35.839Z,88.45
2018-02-01T16:53:03.229Z,88.86
2018-02-01T16:55:31.484Z,89.02
2018-02-01T16:57:59.488Z,88.62
2018-02-01T17:00:27.507Z,88.41
2018-02-01T17:02:54.703Z,87.99
2018-02-01T17:05:22.003Z,87.99
2018-02-01T17:07:49.188Z,88.65
2018-02-01T17:10:16.309Z,88.32
2018-02-01T17:12:43.578Z,87.77
2018-02-01T17:15:10.802Z,87.81
2018-02-01T17:17:39.348Z,87.71
2018-02-01T17:20:07.676Z,87.67
2018-02-01T17:22:36.909Z,87.41
2018-02-01T17:25:05.805Z,87.59
2018-02-01T17:27:35.153Z,87.45
2018-02-01T17:30:02.664Z,87.75
2018-02-01T17:32:30.950Z,87.58
2018-02-01T17:35:02.499Z,87.57
2018-02-01T17:37:37.346Z,87.35
2018-02-01T17:49:10.462Z,87.65
2018-02-01T17:51:39.379Z,87.41
2018-02-01T17:54:14.369Z,87.72
2018-02-01T17:59:24.027Z,87.66
2018-02-01T18:01:52.815Z,87.98
2018-02-01T18:04:20.960Z,87.82
2018-02-01T18:06:48.127Z,87.41
2018-02-01T18:09:15.677Z,87.92
2018-02-01T18:11:51.020Z,87.46
2018-02-01T18:14:19.435Z,87.56
2018-02-01T18:16:46.840Z,87.25
2018-02-01T18:19:15.415Z,87.30
2018-02-01T18:21:43.243Z,87.41
2018-02-01T18:24:10.523Z,87.47
2018-02-01T18:26:38.836Z,87.36
2018-02-01T18:40:01.159Z,87.13
2018-02-01T18:42:33.865Z,87.15
2018-02-01T18:45:40.457Z,87.30
2018-02-01T18:48:36.287Z,87.48
2018-02-01T18:53:51.443Z,86.85
2018-02-01T19:03:11.346Z,87.02
2018-02-01T19:14:19.380Z,87.01
2018-02-01T19:39:18.767Z,86.42
2018-02-01T19:41:50.280Z,86.36
2018-02-01T19:44:22.525Z,86.65
2018-02-01T19:46:51.531Z,86.41
2018-02-01T19:49:21.508Z,86.51
2018-02-01T19:51:51.444Z,86.41
2018-02-01T19:54:23.950Z,86.21
2018-02-01T19:57:00.297Z,86.44
2018-02-01T19:59:29.976Z,87.00
2018-02-01T20:01:59.320Z,86.85
2018-02-01T20:04:29.275Z,86.98
2018-02-01T20:06:59.003Z,87.02
2018-02-01T20:09:28.856Z,86.51
2018-02-01T20:11:59.288Z,86.45
2018-02-01T20:18:18.647Z,86.67
2018-02-01T22:28:58.586Z,86.73
2018-02-01T22:31:35.057Z,86.57
2018-02-01T22:34:06.612Z,86.24
2018-02-01T22:36:42.539Z,86.57
2018-02-01T22:39:15.666Z,87.08
2018-02-01T22:41:43.990Z,87.16
2018-02-01T22:44:12.777Z,86.62
2018-02-01T22:46:41.069Z,87.11
2018-02-01T22:49:09.845Z,86.87
2018-02-01T22:51:37.597Z,87.45
2018-02-01T22:54:05.683Z,87.01
2018-02-01T22:56:34.779Z,87.19
2018-02-01T22:59:03.026Z,87.19
2018-02-01T23:01:30.021Z,87.49
2018-02-01T23:03:58.806Z,87.50
2018-02-01T23:06:27.251Z,87.24
2018-02-01T23:08:55.640Z,87.05
2018-02-01T23:11:22.751Z,87.55
2018-02-01T23:13:50.696Z,87.37
2018-02-01T23:16:19.026Z,87.07
2018-02-01T23:18:46.107Z,87.43
2018-02-01T23:21:13.767Z,87.71
2018-02-01T23:23:41.022Z,87.79
2018-02-01T23:26:08.366Z,87.92
2018-02-01T23:28:35.537Z,87.58
2018-02-01T23:31:04.921Z,87.50
2018-02-01T23:33:33.329Z,87.56
2018-02-01T23:36:00.411Z,87.17
2018-02-01T23:38:32.045Z,87.28
2018-02-01T23:41:01.043Z,87.16
2018-02-01T23:43:30.412Z,87.41
2018-02-01T23:46:01.343Z,87.27
2018-02-01T23:48:28.617Z,87.49
2018-02-01T23:50:55.740Z,87.39
2018-02-01T23:53:23.151Z,87.23
2018-02-01T23:55:51.490Z,87.36
2018-02-01T23:58:20.590Z,86.92
